sensor_id;sensor_type;location;lat;lon;timestamp;P1;durP1;ratioP1;P2;durP2;ratioP2
23099;SDS011;53791;50.696;4.396;2023-04-16T00:00:02;2.40;;;1.27;;
23099;SDS011;53791;50.696;4.396;2023-04-16T00:02:30;2.00;;;1.25;;
23099;SDS011;53791;50.696;4.396;2023-04-16T00:04:57;1.90;;;1.10;;
23099;SDS011;53791;50.696;4.396;2023-04-16T00:07:25;2.35;;;1.45;;
23099;SDS011;53791;50.696;4.396;2023-04-16T00:09:52;1.50;;;0.90;;
23099;SDS011;53791;50.696;4.396;2023-04-16T00:12:20;2.10;;;1.42;;
23099;SDS011;53791;50.696;4.396;2023-04-16T00:14:48;1.95;;;1.32;;
23099;SDS011;53791;50.696;4.396;2023-04-16T00:17:16;3.25;;;2.10;;
23099;SDS011;53791;50.696;4.396;2023-04-16T00:19:43;2.40;;;1.30;;
23099;SDS011;53791;50.696;4.396;2023-04-16T00:22:11;5.62;;;2.00;;
23099;SDS011;53791;50.696;4.396;2023-04-16T00:24:38;2.45;;;1.27;;
23099;SDS011;53791;50.696;4.396;2023-04-16T00:27:06;3.85;;;2.05;;
23099;SDS011;53791;50.696;4.396;2023-04-16T00:29:33;2.15;;;1.35;;
23099;SDS011;53791;50.696;4.396;2023-04-16T00:32:01;2.35;;;1.67;;
23099;SDS011;53791;50.696;4.396;2023-04-16T00:34:28;2.30;;;1.55;;
23099;SDS011;53791;50.696;4.396;2023-04-16T00:36:56;3.30;;;1.50;;
23099;SDS011;53791;50.696;4.396;2023-04-16T00:39:23;3.02;;;1.50;;
23099;SDS011;53791;50.696;4.396;2023-04-16T00:41:51;1.62;;;1.12;;
23099;SDS011;53791;50.696;4.396;2023-04-16T00:44:19;2.22;;;1.10;;
23099;SDS011;53791;50.696;4.396;2023-04-16T00:46:46;2.20;;;1.17;;
23099;SDS011;53791;50.696;4.396;2023-04-16T00:49:14;1.70;;;1.05;;
23099;SDS011;53791;50.696;4.396;2023-04-16T00:51:42;2.15;;;1.20;;
23099;SDS011;53791;50.696;4.396;2023-04-16T00:54:09;2.30;;;1.40;;
23099;SDS011;53791;50.696;4.396;2023-04-16T00:56:37;2.90;;;1.77;;
23099;SDS011;53791;50.696;4.396;2023-04-16T00:59:05;1.82;;;1.12;;
23099;SDS011;53791;50.696;4.396;2023-04-16T01:01:33;4.05;;;1.65;;
23099;SDS011;53791;50.696;4.396;2023-04-16T01:04:00;3.40;;;1.67;;
23099;SDS011;53791;50.696;4.396;2023-04-16T01:06:28;3.55;;;1.57;;
23099;SDS011;53791;50.696;4.396;2023-04-16T01:08:56;1.50;;;0.90;;
23099;SDS011;53791;50.696;4.396;2023-04-16T01:11:24;1.87;;;1.25;;
23099;SDS011;53791;50.696;4.396;2023-04-16T01:13:52;2.77;;;1.55;;
23099;SDS011;53791;50.696;4.396;2023-04-16T01:16:19;2.40;;;1.35;;
23099;SDS011;53791;50.696;4.396;2023-04-16T01:18:47;1.60;;;1.00;;
23099;SDS011;53791;50.696;4.396;2023-04-16T01:21:14;1.80;;;1.10;;
23099;SDS011;53791;50.696;4.396;2023-04-16T01:23:41;4.85;;;2.12;;
23099;SDS011;53791;50.696;4.396;2023-04-16T01:26:09;1.92;;;1.25;;
23099;SDS011;53791;50.696;4.396;2023-04-16T01:28:36;1.80;;;1.17;;
23099;SDS011;53791;50.696;4.396;2023-04-16T01:31:04;1.45;;;0.93;;
23099;SDS011;53791;50.696;4.396;2023-04-16T01:33:32;2.20;;;1.40;;
23099;SDS011;53791;50.696;4.396;2023-04-16T01:35:59;2.62;;;1.52;;
23099;SDS011;53791;50.696;4.396;2023-04-16T01:38:26;2.27;;;1.10;;
23099;SDS011;53791;50.696;4.396;2023-04-16T01:40:55;2.30;;;1.25;;
23099;SDS011;53791;50.696;4.396;2023-04-16T01:43:24;1.65;;;1.00;;
23099;SDS011;53791;50.696;4.396;2023-04-16T01:45:53;1.60;;;0.90;;
23099;SDS011;53791;50.696;4.396;2023-04-16T01:48:22;1.60;;;1.10;;
23099;SDS011;53791;50.696;4.396;2023-04-16T01:50:49;1.50;;;0.88;;
23099;SDS011;53791;50.696;4.396;2023-04-16T01:53:17;2.10;;;1.20;;
23099;SDS011;53791;50.696;4.396;2023-04-16T01:55:44;3.42;;;1.42;;
23099;SDS011;53791;50.696;4.396;2023-04-16T01:58:12;3.17;;;1.07;;
23099;SDS011;53791;50.696;4.396;2023-04-16T02:00:39;2.60;;;1.25;;
23099;SDS011;53791;50.696;4.396;2023-04-16T02:03:07;1.45;;;0.80;;
23099;SDS011;53791;50.696;4.396;2023-04-16T02:05:35;1.80;;;1.00;;
23099;SDS011;53791;50.696;4.396;2023-04-16T02:08:03;1.70;;;0.90;;
23099;SDS011;53791;50.696;4.396;2023-04-16T02:10:31;3.12;;;1.32;;
23099;SDS011;53791;50.696;4.396;2023-04-16T02:12:58;2.33;;;1.37;;
23099;SDS011;53791;50.696;4.396;2023-04-16T02:15:26;1.65;;;1.02;;
23099;SDS011;53791;50.696;4.396;2023-04-16T02:17:53;1.50;;;0.80;;
23099;SDS011;53791;50.696;4.396;2023-04-16T02:20:21;2.52;;;1.37;;
23099;SDS011;53791;50.696;4.396;2023-04-16T02:22:49;5.12;;;1.55;;
23099;SDS011;53791;50.696;4.396;2023-04-16T02:25:16;1.75;;;1.07;;
23099;SDS011;53791;50.696;4.396;2023-04-16T02:27:44;1.62;;;1.05;;
23099;SDS011;53791;50.696;4.396;2023-04-16T02:30:11;1.45;;;0.88;;
23099;SDS011;53791;50.696;4.396;2023-04-16T02:32:39;2.12;;;1.30;;
23099;SDS011;53791;50.696;4.396;2023-04-16T02:35:06;2.92;;;1.25;;
23099;SDS011;53791;50.696;4.396;2023-04-16T02:37:34;2.98;;;1.40;;
23099;SDS011;53791;50.696;4.396;2023-04-16T02:40:02;1.50;;;0.85;;
23099;SDS011;53791;50.696;4.396;2023-04-16T02:42:29;2.45;;;1.60;;
23099;SDS011;53791;50.696;4.396;2023-04-16T02:44:57;2.50;;;1.32;;
23099;SDS011;53791;50.696;4.396;2023-04-16T02:47:24;2.05;;;1.37;;
23099;SDS011;53791;50.696;4.396;2023-04-16T02:49:52;1.60;;;1.00;;
23099;SDS011;53791;50.696;4.396;2023-04-16T02:52:19;1.50;;;0.80;;
23099;SDS011;53791;50.696;4.396;2023-04-16T02:54:47;12.30;;;1.52;;
23099;SDS011;53791;50.696;4.396;2023-04-16T02:57:14;2.05;;;1.32;;
23099;SDS011;53791;50.696;4.396;2023-04-16T02:59:42;2.02;;;1.20;;
23099;SDS011;53791;50.696;4.396;2023-04-16T03:02:09;1.50;;;0.80;;
23099;SDS011;53791;50.696;4.396;2023-04-16T03:04:37;1.95;;;0.85;;
23099;SDS011;53791;50.696;4.396;2023-04-16T03:07:04;3.50;;;1.00;;
23099;SDS011;53791;50.696;4.396;2023-04-16T03:09:33;2.02;;;1.02;;
23099;SDS011;53791;50.696;4.396;2023-04-16T03:12:03;1.80;;;1.10;;
23099;SDS011;53791;50.696;4.396;2023-04-16T03:14:30;1.92;;;1.00;;
23099;SDS011;53791;50.696;4.396;2023-04-16T03:16:58;1.50;;;0.80;;
23099;SDS011;53791;50.696;4.396;2023-04-16T03:19:25;1.60;;;0.90;;
23099;SDS011;53791;50.696;4.396;2023-04-16T03:21:53;1.60;;;0.90;;
23099;SDS011;53791;50.696;4.396;2023-04-16T03:24:26;1.40;;;0.80;;
23099;SDS011;53791;50.696;4.396;2023-04-16T03:26:50;1.60;;;0.95;;
23099;SDS011;53791;50.696;4.396;2023-04-16T03:29:18;1.45;;;0.82;;
23099;SDS011;53791;50.696;4.396;2023-04-16T03:31:45;1.50;;;0.98;;
23099;SDS011;53791;50.696;4.396;2023-04-16T03:34:13;1.55;;;0.93;;
23099;SDS011;53791;50.696;4.396;2023-04-16T03:36:40;4.33;;;1.20;;
23099;SDS011;53791;50.696;4.396;2023-04-16T03:39:08;1.65;;;1.00;;
23099;SDS011;53791;50.696;4.396;2023-04-16T03:41:37;4.30;;;1.40;;
23099;SDS011;53791;50.696;4.396;2023-04-16T03:44:04;1.40;;;0.70;;
23099;SDS011;53791;50.696;4.396;2023-04-16T03:46:32;1.52;;;0.90;;
23099;SDS011;53791;50.696;4.396;2023-04-16T03:49:00;1.75;;;1.12;;
23099;SDS011;53791;50.696;4.396;2023-04-16T03:51:27;1.30;;;0.68;;
23099;SDS011;53791;50.696;4.396;2023-04-16T03:53:55;2.50;;;1.20;;
23099;SDS011;53791;50.696;4.396;2023-04-16T03:56:23;1.50;;;0.80;;
23099;SDS011;53791;50.696;4.396;2023-04-16T03:58:50;1.50;;;0.80;;
23099;SDS011;53791;50.696;4.396;2023-04-16T04:01:18;2.62;;;1.50;;
23099;SDS011;53791;50.696;4.396;2023-04-16T04:03:45;4.20;;;1.37;;
23099;SDS011;53791;50.696;4.396;2023-04-16T04:06:13;1.82;;;1.10;;
23099;SDS011;53791;50.696;4.396;2023-04-16T04:08:40;1.60;;;0.80;;
23099;SDS011;53791;50.696;4.396;2023-04-16T04:11:08;1.72;;;1.00;;
23099;SDS011;53791;50.696;4.396;2023-04-16T04:13:35;1.50;;;1.00;;
23099;SDS011;53791;50.696;4.396;2023-04-16T04:16:03;2.10;;;1.20;;
23099;SDS011;53791;50.696;4.396;2023-04-16T04:18:31;1.50;;;0.80;;
23099;SDS011;53791;50.696;4.396;2023-04-16T04:20:58;1.65;;;1.05;;
23099;SDS011;53791;50.696;4.396;2023-04-16T04:23:27;1.50;;;0.80;;
23099;SDS011;53791;50.696;4.396;2023-04-16T04:25:55;1.40;;;0.90;;
23099;SDS011;53791;50.696;4.396;2023-04-16T04:28:22;1.75;;;0.82;;
23099;SDS011;53791;50.696;4.396;2023-04-16T04:30:50;1.55;;;0.82;;
23099;SDS011;53791;50.696;4.396;2023-04-16T04:33:17;1.65;;;0.95;;
23099;SDS011;53791;50.696;4.396;2023-04-16T04:35:45;1.85;;;1.07;;
23099;SDS011;53791;50.696;4.396;2023-04-16T04:38:13;14.70;;;1.32;;
23099;SDS011;53791;50.696;4.396;2023-04-16T04:40:42;1.67;;;1.07;;
23099;SDS011;53791;50.696;4.396;2023-04-16T04:43:09;1.85;;;1.15;;
23099;SDS011;53791;50.696;4.396;2023-04-16T04:45:37;1.90;;;1.15;;
23099;SDS011;53791;50.696;4.396;2023-04-16T04:48:04;2.08;;;1.37;;
23099;SDS011;53791;50.696;4.396;2023-04-16T04:50:32;6.25;;;1.80;;
23099;SDS011;53791;50.696;4.396;2023-04-16T04:52:59;1.82;;;1.05;;
23099;SDS011;53791;50.696;4.396;2023-04-16T04:55:27;1.62;;;0.93;;
23099;SDS011;53791;50.696;4.396;2023-04-16T04:57:54;1.52;;;0.90;;
23099;SDS011;53791;50.696;4.396;2023-04-16T05:00:22;1.60;;;1.00;;
23099;SDS011;53791;50.696;4.396;2023-04-16T05:02:49;1.60;;;0.90;;
23099;SDS011;53791;50.696;4.396;2023-04-16T05:05:17;1.70;;;1.00;;
23099;SDS011;53791;50.696;4.396;2023-04-16T05:07:44;1.70;;;1.02;;
23099;SDS011;53791;50.696;4.396;2023-04-16T05:10:12;1.50;;;0.80;;
23099;SDS011;53791;50.696;4.396;2023-04-16T05:12:39;1.50;;;0.95;;
23099;SDS011;53791;50.696;4.396;2023-04-16T05:15:07;2.15;;;1.45;;
23099;SDS011;53791;50.696;4.396;2023-04-16T05:17:35;1.70;;;0.98;;
23099;SDS011;53791;50.696;4.396;2023-04-16T05:20:02;1.42;;;0.82;;
23099;SDS011;53791;50.696;4.396;2023-04-16T05:22:30;1.82;;;1.17;;
23099;SDS011;53791;50.696;4.396;2023-04-16T05:24:58;1.75;;;1.07;;
23099;SDS011;53791;50.696;4.396;2023-04-16T05:27:26;1.87;;;1.22;;
23099;SDS011;53791;50.696;4.396;2023-04-16T05:29:53;1.90;;;1.10;;
23099;SDS011;53791;50.696;4.396;2023-04-16T05:32:21;1.67;;;1.10;;
23099;SDS011;53791;50.696;4.396;2023-04-16T05:34:50;1.80;;;1.12;;
23099;SDS011;53791;50.696;4.396;2023-04-16T05:37:18;1.72;;;0.93;;
23099;SDS011;53791;50.696;4.396;2023-04-16T05:39:45;1.55;;;0.85;;
23099;SDS011;53791;50.696;4.396;2023-04-16T05:42:13;1.60;;;0.95;;
23099;SDS011;53791;50.696;4.396;2023-04-16T05:44:41;2.08;;;1.10;;
23099;SDS011;53791;50.696;4.396;2023-04-16T05:47:08;1.60;;;0.90;;
23099;SDS011;53791;50.696;4.396;2023-04-16T05:49:36;1.70;;;1.07;;
23099;SDS011;53791;50.696;4.396;2023-04-16T05:52:04;1.37;;;0.78;;
23099;SDS011;53791;50.696;4.396;2023-04-16T05:54:32;1.52;;;0.90;;
23099;SDS011;53791;50.696;4.396;2023-04-16T05:57:00;1.50;;;0.90;;
23099;SDS011;53791;50.696;4.396;2023-04-16T05:59:27;1.50;;;0.90;;
23099;SDS011;53791;50.696;4.396;2023-04-16T06:01:55;3.12;;;1.27;;
23099;SDS011;53791;50.696;4.396;2023-04-16T06:04:23;1.57;;;0.78;;
23099;SDS011;53791;50.696;4.396;2023-04-16T06:06:51;1.67;;;1.02;;
23099;SDS011;53791;50.696;4.396;2023-04-16T06:09:20;1.62;;;1.00;;
23099;SDS011;53791;50.696;4.396;2023-04-16T06:11:47;2.65;;;1.70;;
23099;SDS011;53791;50.696;4.396;2023-04-16T06:14:15;1.60;;;0.95;;
23099;SDS011;53791;50.696;4.396;2023-04-16T06:16:42;1.60;;;0.95;;
23099;SDS011;53791;50.696;4.396;2023-04-16T06:19:10;1.45;;;0.80;;
23099;SDS011;53791;50.696;4.396;2023-04-16T06:21:37;1.70;;;1.00;;
23099;SDS011;53791;50.696;4.396;2023-04-16T06:24:05;1.55;;;0.93;;
23099;SDS011;53791;50.696;4.396;2023-04-16T06:26:33;1.95;;;1.47;;
23099;SDS011;53791;50.696;4.396;2023-04-16T06:29:00;4.22;;;1.32;;
23099;SDS011;53791;50.696;4.396;2023-04-16T06:31:28;7.90;;;1.82;;
23099;SDS011;53791;50.696;4.396;2023-04-16T06:33:56;1.80;;;1.10;;
23099;SDS011;53791;50.696;4.396;2023-04-16T06:36:23;3.80;;;1.42;;
23099;SDS011;53791;50.696;4.396;2023-04-16T06:38:52;1.60;;;0.90;;
23099;SDS011;53791;50.696;4.396;2023-04-16T06:41:19;1.55;;;0.90;;
23099;SDS011;53791;50.696;4.396;2023-04-16T06:43:48;1.92;;;1.30;;
23099;SDS011;53791;50.696;4.396;2023-04-16T06:46:15;1.85;;;1.07;;
23099;SDS011;53791;50.696;4.396;2023-04-16T06:48:43;1.90;;;1.20;;
23099;SDS011;53791;50.696;4.396;2023-04-16T06:51:10;1.57;;;0.88;;
23099;SDS011;53791;50.696;4.396;2023-04-16T06:53:38;1.70;;;0.98;;
23099;SDS011;53791;50.696;4.396;2023-04-16T06:56:07;1.70;;;1.00;;
23099;SDS011;53791;50.696;4.396;2023-04-16T06:58:35;1.60;;;0.88;;
23099;SDS011;53791;50.696;4.396;2023-04-16T07:01:03;2.15;;;1.32;;
23099;SDS011;53791;50.696;4.396;2023-04-16T07:03:30;1.70;;;0.85;;
23099;SDS011;53791;50.696;4.396;2023-04-16T07:05:58;1.90;;;1.27;;
23099;SDS011;53791;50.696;4.396;2023-04-16T07:08:26;2.15;;;1.07;;
23099;SDS011;53791;50.696;4.396;2023-04-16T07:10:53;2.90;;;1.45;;
23099;SDS011;53791;50.696;4.396;2023-04-16T07:13:21;2.37;;;1.17;;
23099;SDS011;53791;50.696;4.396;2023-04-16T07:15:48;1.70;;;1.05;;
23099;SDS011;53791;50.696;4.396;2023-04-16T07:18:16;2.35;;;1.30;;
23099;SDS011;53791;50.696;4.396;2023-04-16T07:20:43;5.97;;;1.65;;
23099;SDS011;53791;50.696;4.396;2023-04-16T07:23:11;2.00;;;1.10;;
23099;SDS011;53791;50.696;4.396;2023-04-16T07:25:38;2.85;;;1.57;;
23099;SDS011;53791;50.696;4.396;2023-04-16T07:28:06;1.67;;;0.82;;
23099;SDS011;53791;50.696;4.396;2023-04-16T07:30:34;1.57;;;0.93;;
23099;SDS011;53791;50.696;4.396;2023-04-16T07:33:03;1.65;;;0.98;;
23099;SDS011;53791;50.696;4.396;2023-04-16T07:35:31;1.50;;;0.95;;
23099;SDS011;53791;50.696;4.396;2023-04-16T07:37:58;1.90;;;1.17;;
23099;SDS011;53791;50.696;4.396;2023-04-16T07:40:26;1.65;;;1.10;;
23099;SDS011;53791;50.696;4.396;2023-04-16T07:42:54;1.90;;;1.30;;
23099;SDS011;53791;50.696;4.396;2023-04-16T07:45:22;5.10;;;1.57;;
23099;SDS011;53791;50.696;4.396;2023-04-16T07:47:49;4.62;;;1.52;;
23099;SDS011;53791;50.696;4.396;2023-04-16T07:50:17;1.50;;;0.80;;
23099;SDS011;53791;50.696;4.396;2023-04-16T07:52:45;2.75;;;1.52;;
23099;SDS011;53791;50.696;4.396;2023-04-16T07:55:13;2.27;;;1.45;;
23099;SDS011;53791;50.696;4.396;2023-04-16T07:57:41;2.45;;;1.65;;
23099;SDS011;53791;50.696;4.396;2023-04-16T08:00:09;3.17;;;1.70;;
23099;SDS011;53791;50.696;4.396;2023-04-16T08:02:36;2.33;;;1.42;;
23099;SDS011;53791;50.696;4.396;2023-04-16T08:05:04;1.82;;;1.15;;
23099;SDS011;53791;50.696;4.396;2023-04-16T08:07:32;2.37;;;1.40;;
23099;SDS011;53791;50.696;4.396;2023-04-16T08:09:59;3.08;;;1.82;;
23099;SDS011;53791;50.696;4.396;2023-04-16T08:12:27;1.50;;;0.98;;
23099;SDS011;53791;50.696;4.396;2023-04-16T08:14:55;1.90;;;1.22;;
23099;SDS011;53791;50.696;4.396;2023-04-16T08:17:23;3.40;;;1.72;;
23099;SDS011;53791;50.696;4.396;2023-04-16T08:19:50;1.92;;;1.17;;
23099;SDS011;53791;50.696;4.396;2023-04-16T08:22:18;2.08;;;1.40;;
23099;SDS011;53791;50.696;4.396;2023-04-16T08:24:45;2.90;;;1.50;;
23099;SDS011;53791;50.696;4.396;2023-04-16T08:27:13;2.25;;;1.42;;
23099;SDS011;53791;50.696;4.396;2023-04-16T08:29:41;2.22;;;1.30;;
23099;SDS011;53791;50.696;4.396;2023-04-16T08:32:09;2.65;;;1.80;;
23099;SDS011;53791;50.696;4.396;2023-04-16T08:34:36;2.42;;;1.60;;
23099;SDS011;53791;50.696;4.396;2023-04-16T08:37:04;2.12;;;1.17;;
23099;SDS011;53791;50.696;4.396;2023-04-16T08:39:31;3.08;;;1.60;;
23099;SDS011;53791;50.696;4.396;2023-04-16T08:41:59;1.67;;;1.10;;
23099;SDS011;53791;50.696;4.396;2023-04-16T08:44:34;1.70;;;1.20;;
23099;SDS011;53791;50.696;4.396;2023-04-16T08:47:04;1.72;;;1.12;;
23099;SDS011;53791;50.696;4.396;2023-04-16T08:49:35;2.50;;;1.65;;
23099;SDS011;53791;50.696;4.396;2023-04-16T08:52:04;4.22;;;1.77;;
23099;SDS011;53791;50.696;4.396;2023-04-16T08:54:38;3.00;;;1.90;;
23099;SDS011;53791;50.696;4.396;2023-04-16T08:57:06;3.40;;;2.10;;
23099;SDS011;53791;50.696;4.396;2023-04-16T08:59:38;2.50;;;1.50;;
23099;SDS011;53791;50.696;4.396;2023-04-16T09:02:08;1.72;;;1.27;;
23099;SDS011;53791;50.696;4.396;2023-04-16T09:04:38;3.27;;;2.00;;
23099;SDS011;53791;50.696;4.396;2023-04-16T09:07:07;6.75;;;2.58;;
23099;SDS011;53791;50.696;4.396;2023-04-16T09:09:36;4.20;;;1.75;;
23099;SDS011;53791;50.696;4.396;2023-04-16T09:12:05;2.95;;;1.70;;
23099;SDS011;53791;50.696;4.396;2023-04-16T09:14:34;8.00;;;3.10;;
23099;SDS011;53791;50.696;4.396;2023-04-16T09:17:02;2.72;;;1.67;;
23099;SDS011;53791;50.696;4.396;2023-04-16T09:19:31;2.45;;;1.45;;
23099;SDS011;53791;50.696;4.396;2023-04-16T09:21:59;2.25;;;1.45;;
23099;SDS011;53791;50.696;4.396;2023-04-16T09:24:27;8.08;;;1.92;;
23099;SDS011;53791;50.696;4.396;2023-04-16T09:26:55;2.22;;;1.27;;
23099;SDS011;53791;50.696;4.396;2023-04-16T09:29:34;2.00;;;1.50;;
23099;SDS011;53791;50.696;4.396;2023-04-16T09:32:07;2.12;;;1.37;;
23099;SDS011;53791;50.696;4.396;2023-04-16T09:34:34;2.98;;;2.08;;
23099;SDS011;53791;50.696;4.396;2023-04-16T09:37:17;2.37;;;1.45;;
23099;SDS011;53791;50.696;4.396;2023-04-16T09:39:43;3.05;;;1.67;;
23099;SDS011;53791;50.696;4.396;2023-04-16T09:42:12;2.72;;;1.80;;
23099;SDS011;53791;50.696;4.396;2023-04-16T09:44:40;3.87;;;2.15;;
23099;SDS011;53791;50.696;4.396;2023-04-16T09:47:08;1.98;;;1.32;;
23099;SDS011;53791;50.696;4.396;2023-04-16T09:49:44;2.65;;;1.82;;
23099;SDS011;53791;50.696;4.396;2023-04-16T09:52:14;4.67;;;2.12;;
23099;SDS011;53791;50.696;4.396;2023-04-16T09:54:49;2.40;;;1.80;;
23099;SDS011;53791;50.696;4.396;2023-04-16T09:57:23;3.85;;;2.42;;
23099;SDS011;53791;50.696;4.396;2023-04-16T09:59:52;2.17;;;1.52;;
23099;SDS011;53791;50.696;4.396;2023-04-16T10:02:25;2.05;;;1.40;;
23099;SDS011;53791;50.696;4.396;2023-04-16T10:04:53;2.30;;;1.52;;
23099;SDS011;53791;50.696;4.396;2023-04-16T10:07:22;5.55;;;2.05;;
23099;SDS011;53791;50.696;4.396;2023-04-16T10:09:52;3.42;;;1.80;;
23099;SDS011;53791;50.696;4.396;2023-04-16T10:12:21;2.40;;;1.30;;
23099;SDS011;53791;50.696;4.396;2023-04-16T10:14:48;4.12;;;2.08;;
23099;SDS011;53791;50.696;4.396;2023-04-16T10:17:16;1.90;;;1.37;;
23099;SDS011;53791;50.696;4.396;2023-04-16T10:19:44;2.80;;;1.77;;
23099;SDS011;53791;50.696;4.396;2023-04-16T10:22:12;2.45;;;1.50;;
23099;SDS011;53791;50.696;4.396;2023-04-16T10:24:40;2.25;;;1.50;;
23099;SDS011;53791;50.696;4.396;2023-04-16T10:27:09;4.08;;;2.98;;
23099;SDS011;53791;50.696;4.396;2023-04-16T10:29:37;2.30;;;1.40;;
23099;SDS011;53791;50.696;4.396;2023-04-16T10:32:05;3.70;;;1.55;;
23099;SDS011;53791;50.696;4.396;2023-04-16T10:34:33;2.60;;;1.72;;
23099;SDS011;53791;50.696;4.396;2023-04-16T10:37:01;3.45;;;1.95;;
23099;SDS011;53791;50.696;4.396;2023-04-16T10:39:29;2.37;;;1.40;;
23099;SDS011;53791;50.696;4.396;2023-04-16T10:42:08;2.40;;;1.60;;
23099;SDS011;53791;50.696;4.396;2023-04-16T10:44:38;2.02;;;1.45;;
23099;SDS011;53791;50.696;4.396;2023-04-16T10:47:09;4.08;;;2.55;;
23099;SDS011;53791;50.696;4.396;2023-04-16T10:49:38;5.12;;;2.27;;
23099;SDS011;53791;50.696;4.396;2023-04-16T10:52:13;2.05;;;1.32;;
23099;SDS011;53791;50.696;4.396;2023-04-16T10:54:45;2.50;;;1.52;;
23099;SDS011;53791;50.696;4.396;2023-04-16T10:57:16;4.87;;;1.90;;
23099;SDS011;53791;50.696;4.396;2023-04-16T10:59:46;5.10;;;1.75;;
23099;SDS011;53791;50.696;4.396;2023-04-16T11:02:15;2.22;;;1.40;;
23099;SDS011;53791;50.696;4.396;2023-04-16T11:04:44;2.35;;;1.35;;
23099;SDS011;53791;50.696;4.396;2023-04-16T11:07:16;2.83;;;1.40;;
23099;SDS011;53791;50.696;4.396;2023-04-16T11:12:23;2.70;;;1.70;;
23099;SDS011;53791;50.696;4.396;2023-04-16T11:14:54;3.47;;;1.90;;
23099;SDS011;53791;50.696;4.396;2023-04-16T11:17:26;2.45;;;1.62;;
23099;SDS011;53791;50.696;4.396;2023-04-16T11:20:07;2.05;;;1.60;;
23099;SDS011;53791;50.696;4.396;2023-04-16T11:22:36;2.12;;;1.60;;
23099;SDS011;53791;50.696;4.396;2023-04-16T11:25:03;2.35;;;1.32;;
23099;SDS011;53791;50.696;4.396;2023-04-16T11:27:31;3.25;;;1.50;;
23099;SDS011;53791;50.696;4.396;2023-04-16T11:30:04;3.40;;;1.92;;
23099;SDS011;53791;50.696;4.396;2023-04-16T11:32:36;2.35;;;1.67;;
23099;SDS011;53791;50.696;4.396;2023-04-16T11:35:12;3.12;;;1.65;;
23099;SDS011;53791;50.696;4.396;2023-04-16T11:37:40;1.90;;;1.20;;
23099;SDS011;53791;50.696;4.396;2023-04-16T11:40:08;12.88;;;2.55;;
23099;SDS011;53791;50.696;4.396;2023-04-16T11:42:37;9.18;;;1.32;;
23099;SDS011;53791;50.696;4.396;2023-04-16T11:45:06;2.37;;;1.70;;
23099;SDS011;53791;50.696;4.396;2023-04-16T11:47:42;2.70;;;2.02;;
23099;SDS011;53791;50.696;4.396;2023-04-16T11:50:16;2.72;;;1.98;;
23099;SDS011;53791;50.696;4.396;2023-04-16T11:52:48;1.85;;;1.20;;
23099;SDS011;53791;50.696;4.396;2023-04-16T11:55:17;4.05;;;1.87;;
23099;SDS011;53791;50.696;4.396;2023-04-16T11:57:45;2.75;;;2.02;;
23099;SDS011;53791;50.696;4.396;2023-04-16T12:00:13;4.03;;;2.37;;
23099;SDS011;53791;50.696;4.396;2023-04-16T12:02:41;4.15;;;1.92;;
23099;SDS011;53791;50.696;4.396;2023-04-16T12:08:08;2.45;;;1.52;;
23099;SDS011;53791;50.696;4.396;2023-04-16T12:10:36;5.65;;;2.55;;
23099;SDS011;53791;50.696;4.396;2023-04-16T12:13:09;4.03;;;2.87;;
23099;SDS011;53791;50.696;4.396;2023-04-16T12:15:46;4.72;;;2.10;;
23099;SDS011;53791;50.696;4.396;2023-04-16T12:18:15;2.83;;;1.72;;
23099;SDS011;53791;50.696;4.396;2023-04-16T12:20:44;3.58;;;1.62;;
23099;SDS011;53791;50.696;4.396;2023-04-16T12:23:22;3.85;;;1.57;;
23099;SDS011;53791;50.696;4.396;2023-04-16T12:25:56;4.58;;;2.02;;
23099;SDS011;53791;50.696;4.396;2023-04-16T12:28:30;2.87;;;1.92;;
23099;SDS011;53791;50.696;4.396;2023-04-16T12:30:58;3.10;;;1.75;;
23099;SDS011;53791;50.696;4.396;2023-04-16T12:33:26;2.00;;;1.55;;
23099;SDS011;53791;50.696;4.396;2023-04-16T12:35:54;4.42;;;2.47;;
23099;SDS011;53791;50.696;4.396;2023-04-16T12:38:22;2.98;;;1.62;;
23099;SDS011;53791;50.696;4.396;2023-04-16T12:40:50;3.60;;;1.87;;
23099;SDS011;53791;50.696;4.396;2023-04-16T12:43:19;11.03;;;2.22;;
23099;SDS011;53791;50.696;4.396;2023-04-16T12:45:48;2.47;;;1.65;;
23099;SDS011;53791;50.696;4.396;2023-04-16T12:48:15;3.22;;;2.05;;
23099;SDS011;53791;50.696;4.396;2023-04-16T12:50:43;5.17;;;2.10;;
23099;SDS011;53791;50.696;4.396;2023-04-16T12:53:10;4.83;;;2.58;;
23099;SDS011;53791;50.696;4.396;2023-04-16T12:55:38;3.33;;;2.17;;
23099;SDS011;53791;50.696;4.396;2023-04-16T12:58:05;2.60;;;2.05;;
23099;SDS011;53791;50.696;4.396;2023-04-16T13:00:34;2.98;;;1.90;;
23099;SDS011;53791;50.696;4.396;2023-04-16T13:03:01;3.10;;;1.85;;
23099;SDS011;53791;50.696;4.396;2023-04-16T13:05:29;4.72;;;2.20;;
23099;SDS011;53791;50.696;4.396;2023-04-16T13:07:56;3.47;;;2.17;;
23099;SDS011;53791;50.696;4.396;2023-04-16T13:10:24;2.55;;;1.82;;
23099;SDS011;53791;50.696;4.396;2023-04-16T13:12:52;4.00;;;2.77;;
23099;SDS011;53791;50.696;4.396;2023-04-16T13:15:20;3.75;;;2.52;;
23099;SDS011;53791;50.696;4.396;2023-04-16T13:17:47;3.35;;;2.35;;
23099;SDS011;53791;50.696;4.396;2023-04-16T13:20:15;2.75;;;2.20;;
23099;SDS011;53791;50.696;4.396;2023-04-16T13:22:42;3.83;;;2.47;;
23099;SDS011;53791;50.696;4.396;2023-04-16T13:25:10;3.85;;;2.72;;
23099;SDS011;53791;50.696;4.396;2023-04-16T13:27:37;2.83;;;2.02;;
23099;SDS011;53791;50.696;4.396;2023-04-16T13:30:05;4.78;;;2.55;;
23099;SDS011;53791;50.696;4.396;2023-04-16T13:32:33;5.67;;;2.83;;
23099;SDS011;53791;50.696;4.396;2023-04-16T13:35:01;6.35;;;2.22;;
23099;SDS011;53791;50.696;4.396;2023-04-16T13:37:29;6.70;;;2.75;;
23099;SDS011;53791;50.696;4.396;2023-04-16T13:39:56;6.40;;;3.30;;
23099;SDS011;53791;50.696;4.396;2023-04-16T13:42:24;4.87;;;2.75;;
23099;SDS011;53791;50.696;4.396;2023-04-16T13:44:51;2.67;;;1.90;;
23099;SDS011;53791;50.696;4.396;2023-04-16T13:47:19;10.60;;;2.02;;
23099;SDS011;53791;50.696;4.396;2023-04-16T13:49:47;4.10;;;2.67;;
23099;SDS011;53791;50.696;4.396;2023-04-16T13:52:15;3.42;;;2.30;;
23099;SDS011;53791;50.696;4.396;2023-04-16T13:54:42;2.50;;;1.95;;
23099;SDS011;53791;50.696;4.396;2023-04-16T13:57:10;4.40;;;3.00;;
23099;SDS011;53791;50.696;4.396;2023-04-16T13:59:39;12.73;;;3.92;;
23099;SDS011;53791;50.696;4.396;2023-04-16T14:02:07;4.67;;;3.00;;
23099;SDS011;53791;50.696;4.396;2023-04-16T14:04:36;5.20;;;3.12;;
23099;SDS011;53791;50.696;4.396;2023-04-16T14:07:04;3.95;;;2.87;;
23099;SDS011;53791;50.696;4.396;2023-04-16T14:09:31;4.90;;;3.37;;
23099;SDS011;53791;50.696;4.396;2023-04-16T14:11:59;4.37;;;2.58;;
23099;SDS011;53791;50.696;4.396;2023-04-16T14:14:27;3.08;;;1.92;;
23099;SDS011;53791;50.696;4.396;2023-04-16T14:16:54;3.77;;;2.60;;
23099;SDS011;53791;50.696;4.396;2023-04-16T14:19:23;2.87;;;1.87;;
23099;SDS011;53791;50.696;4.396;2023-04-16T14:21:51;3.85;;;2.12;;
23099;SDS011;53791;50.696;4.396;2023-04-16T14:24:19;4.05;;;2.67;;
23099;SDS011;53791;50.696;4.396;2023-04-16T14:26:46;3.08;;;2.35;;
23099;SDS011;53791;50.696;4.396;2023-04-16T14:29:14;6.30;;;3.40;;
23099;SDS011;53791;50.696;4.396;2023-04-16T14:31:41;6.17;;;2.70;;
23099;SDS011;53791;50.696;4.396;2023-04-16T14:34:09;3.55;;;2.33;;
23099;SDS011;53791;50.696;4.396;2023-04-16T14:36:36;3.87;;;2.67;;
23099;SDS011;53791;50.696;4.396;2023-04-16T14:39:04;3.90;;;2.85;;
23099;SDS011;53791;50.696;4.396;2023-04-16T14:41:31;8.38;;;3.40;;
23099;SDS011;53791;50.696;4.396;2023-04-16T14:43:59;3.75;;;2.22;;
23099;SDS011;53791;50.696;4.396;2023-04-16T14:46:26;4.87;;;2.75;;
23099;SDS011;53791;50.696;4.396;2023-04-16T14:48:55;3.67;;;2.60;;
23099;SDS011;53791;50.696;4.396;2023-04-16T14:51:22;3.50;;;2.33;;
23099;SDS011;53791;50.696;4.396;2023-04-16T14:53:52;4.70;;;2.12;;
23099;SDS011;53791;50.696;4.396;2023-04-16T14:56:19;3.67;;;2.65;;
23099;SDS011;53791;50.696;4.396;2023-04-16T14:58:47;7.12;;;3.02;;